sensor_id;sensor_type;location;lat;lon;timestamp;P1;durP1;ratioP1;P2;durP2;ratioP2
38252;SDS011;24785;52.372;20.672;2022-11-20T00:07:04;47.53;;;17.97;;
38252;SDS011;24785;52.372;20.672;2022-11-20T00:17:05;36.00;;;13.13;;
38252;SDS011;24785;52.372;20.672;2022-11-20T00:27:07;37.80;;;13.73;;
38252;SDS011;24785;52.372;20.672;2022-11-20T00:37:07;40.50;;;16.77;;
38252;SDS011;24785;52.372;20.672;2022-11-20T00:47:08;50.50;;;18.60;;
38252;SDS011;24785;52.372;20.672;2022-11-20T00:57:09;51.00;;;18.93;;
38252;SDS011;24785;52.372;20.672;2022-11-20T01:07:10;35.20;;;14.37;;
38252;SDS011;24785;52.372;20.672;2022-11-20T01:17:11;34.13;;;14.40;;
38252;SDS011;24785;52.372;20.672;2022-11-20T01:27:12;57.73;;;21.53;;
38252;SDS011;24785;52.372;20.672;2022-11-20T01:37:13;55.17;;;19.33;;
38252;SDS011;24785;52.372;20.672;2022-11-20T01:47:16;55.73;;;20.47;;
38252;SDS011;24785;52.372;20.672;2022-11-20T01:57:21;55.35;;;20.60;;
38252;SDS011;24785;52.372;20.672;2022-11-20T02:07:25;51.15;;;19.10;;
38252;SDS011;24785;52.372;20.672;2022-11-20T02:17:27;51.87;;;18.73;;
38252;SDS011;24785;52.372;20.672;2022-11-20T02:27:28;49.70;;;18.03;;
38252;SDS011;24785;52.372;20.672;2022-11-20T02:37:30;50.30;;;19.20;;
38252;SDS011;24785;52.372;20.672;2022-11-20T02:47:35;53.55;;;18.60;;
38252;SDS011;24785;52.372;20.672;2022-11-20T02:57:36;55.30;;;18.95;;
38252;SDS011;24785;52.372;20.672;2022-11-20T03:07:37;47.80;;;17.90;;
38252;SDS011;24785;52.372;20.672;2022-11-20T03:17:38;35.57;;;13.43;;
38252;SDS011;24785;52.372;20.672;2022-11-20T03:27:39;44.03;;;16.63;;
38252;SDS011;24785;52.372;20.672;2022-11-20T03:37:40;45.03;;;17.60;;
38252;SDS011;24785;52.372;20.672;2022-11-20T03:47:41;44.95;;;17.83;;
38252;SDS011;24785;52.372;20.672;2022-11-20T03:57:42;49.07;;;18.53;;
38252;SDS011;24785;52.372;20.672;2022-11-20T04:07:43;53.00;;;19.77;;
38252;SDS011;24785;52.372;20.672;2022-11-20T04:17:44;52.17;;;21.90;;
38252;SDS011;24785;52.372;20.672;2022-11-20T04:27:45;59.10;;;21.07;;
38252;SDS011;24785;52.372;20.672;2022-11-20T04:37:46;38.60;;;14.37;;
38252;SDS011;24785;52.372;20.672;2022-11-20T04:47:46;39.80;;;14.80;;
38252;SDS011;24785;52.372;20.672;2022-11-20T04:57:49;42.67;;;17.90;;
38252;SDS011;24785;52.372;20.672;2022-11-20T05:07:51;48.10;;;18.83;;
38252;SDS011;24785;52.372;20.672;2022-11-20T05:17:52;60.10;;;19.53;;
38252;SDS011;24785;52.372;20.672;2022-11-20T05:27:53;54.93;;;18.87;;
38252;SDS011;24785;52.372;20.672;2022-11-20T05:37:54;38.50;;;14.70;;
38252;SDS011;24785;52.372;20.672;2022-11-20T05:47:58;51.07;;;16.03;;
38252;SDS011;24785;52.372;20.672;2022-11-20T05:58:00;54.58;;;18.80;;
38252;SDS011;24785;52.372;20.672;2022-11-20T06:08:01;54.90;;;18.47;;
38252;SDS011;24785;52.372;20.672;2022-11-20T06:18:02;61.07;;;20.20;;
38252;SDS011;24785;52.372;20.672;2022-11-20T06:28:03;59.90;;;20.57;;
38252;SDS011;24785;52.372;20.672;2022-11-20T06:38:04;50.83;;;20.27;;
38252;SDS011;24785;52.372;20.672;2022-11-20T06:48:05;62.53;;;20.47;;
38252;SDS011;24785;52.372;20.672;2022-11-20T06:58:06;57.97;;;20.33;;
38252;SDS011;24785;52.372;20.672;2022-11-20T07:08:07;61.73;;;21.77;;
38252;SDS011;24785;52.372;20.672;2022-11-20T07:18:08;61.73;;;22.03;;
38252;SDS011;24785;52.372;20.672;2022-11-20T07:28:10;60.50;;;21.83;;
38252;SDS011;24785;52.372;20.672;2022-11-20T07:38:11;54.83;;;20.07;;
38252;SDS011;24785;52.372;20.672;2022-11-20T07:48:12;53.33;;;21.67;;
38252;SDS011;24785;52.372;20.672;2022-11-20T07:58:13;65.77;;;22.00;;
38252;SDS011;24785;52.372;20.672;2022-11-20T08:08:14;52.08;;;19.98;;
38252;SDS011;24785;52.372;20.672;2022-11-20T08:18:15;54.83;;;20.73;;
38252;SDS011;24785;52.372;20.672;2022-11-20T08:28:17;56.00;;;21.60;;
38252;SDS011;24785;52.372;20.672;2022-11-20T08:38:19;60.20;;;23.27;;
38252;SDS011;24785;52.372;20.672;2022-11-20T08:48:20;62.60;;;21.73;;
38252;SDS011;24785;52.372;20.672;2022-11-20T08:58:20;57.53;;;21.92;;
38252;SDS011;24785;52.372;20.672;2022-11-20T09:08:21;58.28;;;23.20;;
38252;SDS011;24785;52.372;20.672;2022-11-20T09:18:22;60.70;;;24.92;;
38252;SDS011;24785;52.372;20.672;2022-11-20T09:28:24;61.50;;;22.43;;
38252;SDS011;24785;52.372;20.672;2022-11-20T09:38:25;60.27;;;24.10;;
38252;SDS011;24785;52.372;20.672;2022-11-20T09:58:47;58.03;;;22.73;;
38252;SDS011;24785;52.372;20.672;2022-11-20T10:08:54;64.53;;;25.42;;
38252;SDS011;24785;52.372;20.672;2022-11-20T10:29:36;51.13;;;19.70;;
38252;SDS011;24785;52.372;20.672;2022-11-20T10:50:08;49.42;;;20.73;;
38252;SDS011;24785;52.372;20.672;2022-11-20T11:00:12;50.65;;;20.23;;
38252;SDS011;24785;52.372;20.672;2022-11-20T11:10:18;49.88;;;21.50;;
38252;SDS011;24785;52.372;20.672;2022-11-20T11:20:23;53.95;;;21.63;;
38252;SDS011;24785;52.372;20.672;2022-11-20T11:30:26;60.67;;;22.15;;
38252;SDS011;24785;52.372;20.672;2022-11-20T11:40:29;72.03;;;27.92;;
38252;SDS011;24785;52.372;20.672;2022-11-20T11:50:33;62.72;;;25.05;;
38252;SDS011;24785;52.372;20.672;2022-11-20T12:00:34;54.60;;;22.98;;
38252;SDS011;24785;52.372;20.672;2022-11-20T12:10:40;52.13;;;21.58;;
38252;SDS011;24785;52.372;20.672;2022-11-20T12:20:58;57.90;;;22.80;;
38252;SDS011;24785;52.372;20.672;2022-11-20T12:41:40;50.85;;;20.77;;
38252;SDS011;24785;52.372;20.672;2022-11-20T13:23:25;56.35;;;23.05;;
38252;SDS011;24785;52.372;20.672;2022-11-20T13:43:35;71.10;;;24.40;;
38252;SDS011;24785;52.372;20.672;2022-11-20T13:53:46;94.57;;;34.75;;
38252;SDS011;24785;52.372;20.672;2022-11-20T14:03:50;60.90;;;25.88;;
38252;SDS011;24785;52.372;20.672;2022-11-20T14:24:07;44.67;;;19.58;;
38252;SDS011;24785;52.372;20.672;2022-11-20T14:34:16;46.65;;;19.67;;
38252;SDS011;24785;52.372;20.672;2022-11-20T14:44:25;38.95;;;16.67;;
38252;SDS011;24785;52.372;20.672;2022-11-20T14:54:28;44.00;;;18.83;;
38252;SDS011;24785;52.372;20.672;2022-11-20T15:04:31;44.33;;;17.83;;
38252;SDS011;24785;52.372;20.672;2022-11-20T15:14:32;56.15;;;20.67;;
38252;SDS011;24785;52.372;20.672;2022-11-20T15:24:33;40.10;;;18.02;;
38252;SDS011;24785;52.372;20.672;2022-11-20T15:34:34;47.22;;;19.50;;
38252;SDS011;24785;52.372;20.672;2022-11-20T15:44:35;48.28;;;19.00;;
38252;SDS011;24785;52.372;20.672;2022-11-20T15:54:36;61.33;;;23.15;;
38252;SDS011;24785;52.372;20.672;2022-11-20T16:04:37;57.17;;;20.63;;
38252;SDS011;24785;52.372;20.672;2022-11-20T16:14:39;61.80;;;24.38;;
38252;SDS011;24785;52.372;20.672;2022-11-20T16:24:58;55.67;;;22.63;;
38252;SDS011;24785;52.372;20.672;2022-11-20T16:34:59;50.22;;;21.65;;
38252;SDS011;24785;52.372;20.672;2022-11-20T16:45:00;54.20;;;20.80;;
38252;SDS011;24785;52.372;20.672;2022-11-20T16:55:01;52.33;;;21.17;;
38252;SDS011;24785;52.372;20.672;2022-11-20T17:05:03;58.03;;;21.20;;
38252;SDS011;24785;52.372;20.672;2022-11-20T17:15:04;54.83;;;20.43;;
38252;SDS011;24785;52.372;20.672;2022-11-20T17:25:06;50.88;;;20.20;;
38252;SDS011;24785;52.372;20.672;2022-11-20T17:35:07;51.07;;;18.27;;
38252;SDS011;24785;52.372;20.672;2022-11-20T17:45:08;50.50;;;18.13;;
38252;SDS011;24785;52.372;20.672;2022-11-20T17:55:09;51.30;;;19.50;;
38252;SDS011;24785;52.372;20.672;2022-11-20T18:05:10;51.87;;;17.47;;
38252;SDS011;24785;52.372;20.672;2022-11-20T18:15:11;41.43;;;15.70;;
38252;SDS011;24785;52.372;20.672;2022-11-20T18:25:13;46.63;;;17.60;;
38252;SDS011;24785;52.372;20.672;2022-11-20T18:35:14;42.53;;;16.42;;
38252;SDS011;24785;52.372;20.672;2022-11-20T18:45:16;58.28;;;21.45;;
38252;SDS011;24785;52.372;20.672;2022-11-20T18:55:17;46.13;;;17.03;;
38252;SDS011;24785;52.372;20.672;2022-11-20T19:05:17;35.57;;;12.03;;
38252;SDS011;24785;52.372;20.672;2022-11-20T19:15:18;44.60;;;16.37;;
38252;SDS011;24785;52.372;20.672;2022-11-20T19:25:19;48.53;;;17.83;;
38252;SDS011;24785;52.372;20.672;2022-11-20T19:35:20;53.60;;;17.77;;
38252;SDS011;24785;52.372;20.672;2022-11-20T19:45:21;48.83;;;16.57;;
38252;SDS011;24785;52.372;20.672;2022-11-20T19:55:23;48.50;;;18.00;;
38252;SDS011;24785;52.372;20.672;2022-11-20T20:05:24;56.67;;;18.70;;
38252;SDS011;24785;52.372;20.672;2022-11-20T20:15:24;54.90;;;19.13;;
38252;SDS011;24785;52.372;20.672;2022-11-20T20:25:25;72.57;;;23.20;;
38252;SDS011;24785;52.372;20.672;2022-11-20T20:35:27;191.77;;;43.13;;
38252;SDS011;24785;52.372;20.672;2022-11-20T20:45:28;104.57;;;29.20;;
38252;SDS011;24785;52.372;20.672;2022-11-20T20:55:29;133.50;;;36.88;;
38252;SDS011;24785;52.372;20.672;2022-11-20T21:05:34;116.78;;;30.65;;
38252;SDS011;24785;52.372;20.672;2022-11-20T21:15:37;81.23;;;23.30;;
38252;SDS011;24785;52.372;20.672;2022-11-20T21:25:39;120.57;;;30.90;;
38252;SDS011;24785;52.372;20.672;2022-11-20T21:35:40;74.10;;;23.37;;
38252;SDS011;24785;52.372;20.672;2022-11-20T21:45:41;65.20;;;17.87;;
38252;SDS011;24785;52.372;20.672;2022-11-20T21:55:42;89.67;;;27.30;;
38252;SDS011;24785;52.372;20.672;2022-11-20T22:05:50;69.53;;;22.20;;
38252;SDS011;24785;52.372;20.672;2022-11-20T22:15:54;67.90;;;21.77;;
38252;SDS011;24785;52.372;20.672;2022-11-20T22:26:04;64.85;;;21.27;;
38252;SDS011;24785;52.372;20.672;2022-11-20T22:36:09;73.75;;;22.00;;
38252;SDS011;24785;52.372;20.672;2022-11-20T22:46:13;56.80;;;19.40;;
38252;SDS011;24785;52.372;20.672;2022-11-20T22:56:15;58.55;;;20.30;;
38252;SDS011;24785;52.372;20.672;2022-11-20T23:06:17;61.75;;;17.63;;
38252;SDS011;24785;52.372;20.672;2022-11-20T23:16:19;62.85;;;20.17;;
38252;SDS011;24785;52.372;20.672;2022-11-20T23:26:21;82.22;;;23.95;;
38252;SDS011;24785;52.372;20.672;2022-11-20T23:36:24;67.10;;;21.95;;
38252;SDS011;24785;52.372;20.672;2022-11-20T23:46:25;68.85;;;22.63;;
38252;SDS011;24785;52.372;20.672;2022-11-20T23:56:26;79.70;;;23.58;;
